createdAt,value
2024-05-09T00:00:36.407Z,96.30
2024-05-09T00:10:35.976Z,96.30
2024-05-09T00:20:37.452Z,96.40
2024-05-09T00:30:34.521Z,96.50
2024-05-09T00:40:37.685Z,96.60
2024-05-09T00:50:35.836Z,96.80
2024-05-09T01:00:36.033Z,96.70
2024-05-09T01:10:34.444Z,96.80
2024-05-09T01:20:39.590Z,96.80
2024-05-09T01:30:34.782Z,97.00
2024-05-09T01:40:37.101Z,97.00
2024-05-09T01:50:37.975Z,97.10
2024-05-09T02:00:37.335Z,97.10
2024-05-09T02:10:32.740Z,97.10
2024-05-09T02:20:35.542Z,97.30
2024-05-09T02:30:38.146Z,97.30
2024-05-09T02:40:36.605Z,97.40
2024-05-09T02:50:36.980Z,97.50
2024-05-09T03:00:37.582Z,97.60
2024-05-09T03:10:35.555Z,97.70
2024-05-09T03:20:34.229Z,97.60
2024-05-09T03:30:38.983Z,97.70
2024-05-09T03:40:31.094Z,97.70
2024-05-09T03:50:34.018Z,97.70
2024-05-09T04:00:37.352Z,97.70
2024-05-09T04:10:33.410Z,97.90
2024-05-09T04:20:37.546Z,98.30
2024-05-09T04:30:37.490Z,98.50
2024-05-09T04:40:34.196Z,98.60
2024-05-09T04:50:36.435Z,98.70
2024-05-09T05:00:35.946Z,98.90
2024-05-09T05:10:35.687Z,99.10
2024-05-09T05:20:33.633Z,99.30
2024-05-09T05:30:34.486Z,99.70
2024-05-09T05:40:36.228Z,99.90
2024-05-09T05:50:35.701Z,99.90
2024-05-09T06:00:37.497Z,99.90
2024-05-09T06:10:37.554Z,99.90
2024-05-09T06:20:36.244Z,99.90
2024-05-09T06:30:37.460Z,99.90
2024-05-09T06:40:36.751Z,99.90
2024-05-09T06:50:36.840Z,99.90
2024-05-09T07:00:35.978Z,99.90
2024-05-09T07:10:34.820Z,99.90
2024-05-09T07:20:34.563Z,99.90
2024-05-09T07:30:33.590Z,99.90
2024-05-09T07:40:35.822Z,99.90
2024-05-09T08:00:31.823Z,99.90
2024-05-09T08:10:31.332Z,99.90
2024-05-09T08:20:35.078Z,99.90
2024-05-09T08:30:36.527Z,99.90
2024-05-09T08:40:35.227Z,99.90
2024-05-09T08:50:37.911Z,99.90
2024-05-09T09:00:36.724Z,99.90
2024-05-09T09:10:32.427Z,99.90
2024-05-09T09:20:36.266Z,99.90
2024-05-09T09:30:36.588Z,99.90
2024-05-09T09:40:33.021Z,99.90
2024-05-09T09:50:34.543Z,99.90
2024-05-09T10:00:33.353Z,99.90
2024-05-09T10:10:32.989Z,98.90
2024-05-09T10:20:32.824Z,98.20
2024-05-09T10:30:35.935Z,95.90
2024-05-09T10:40:31.992Z,94.50
2024-05-09T10:50:34.214Z,95.60
2024-05-09T11:00:35.732Z,93.70
2024-05-09T11:10:34.089Z,91.80
2024-05-09T11:20:34.827Z,91.30
2024-05-09T11:30:32.749Z,88.80
2024-05-09T11:50:34.956Z,90.30
2024-05-09T12:00:36.589Z,90.60
2024-05-09T12:10:33.642Z,89.40
2024-05-09T12:20:36.544Z,90.00
2024-05-09T12:30:36.615Z,88.70
2024-05-09T12:40:36.064Z,87.50
2024-05-09T12:50:33.284Z,85.90
2024-05-09T13:00:33.774Z,83.80
2024-05-09T13:10:32.753Z,80.90
2024-05-09T13:20:33.624Z,80.70
2024-05-09T13:30:38.803Z,85.20
2024-05-09T13:40:34.327Z,85.40
2024-05-09T13:50:34.645Z,84.40
2024-05-09T14:00:42.134Z,81.20
2024-05-09T14:10:31.929Z,77.60
2024-05-09T14:20:32.122Z,77.60
2024-05-09T14:30:36.481Z,75.80
2024-05-09T14:40:39.291Z,75.30
2024-05-09T14:50:36.009Z,76.80
2024-05-09T15:00:35.646Z,76.80
2024-05-09T15:10:34.817Z,73.90
2024-05-09T15:20:34.872Z,72.40
2024-05-09T15:30:32.985Z,70.70
2024-05-09T15:40:37.624Z,65.40
2024-05-09T15:50:37.143Z,65.10
2024-05-09T16:00:37.353Z,64.90
2024-05-09T16:10:33.062Z,63.70
2024-05-09T16:20:38.769Z,65.00
2024-05-09T16:30:34.942Z,64.50
2024-05-09T16:40:37.343Z,66.70
2024-05-09T16:50:33.331Z,69.70
2024-05-09T17:00:38.877Z,71.10
2024-05-09T17:10:33.694Z,72.60
2024-05-09T17:20:34.600Z,73.50
2024-05-09T17:30:35.402Z,74.50
2024-05-09T17:40:34.011Z,75.70
2024-05-09T17:50:35.675Z,76.20
2024-05-09T18:00:37.787Z,77.50
2024-05-09T18:10:36.431Z,77.60
2024-05-09T18:20:39.369Z,77.10
2024-05-09T18:30:34.963Z,77.30
2024-05-09T18:40:34.650Z,76.90
2024-05-09T18:50:35.675Z,77.20
2024-05-09T19:00:35.322Z,77.90
2024-05-09T19:10:34.436Z,78.20
2024-05-09T19:20:34.492Z,78.40
2024-05-09T19:30:38.217Z,78.50
2024-05-09T19:40:32.788Z,78.80
2024-05-09T19:50:37.388Z,79.60
2024-05-09T20:00:35.698Z,80.10
2024-05-09T20:10:33.267Z,80.90
2024-05-09T20:20:37.453Z,81.60
2024-05-09T20:30:33.034Z,82.50
2024-05-09T20:40:35.058Z,83.30
2024-05-09T20:50:38.252Z,83.90
2024-05-09T21:00:38.662Z,84.70
2024-05-09T21:10:33.272Z,85.20
2024-05-09T21:20:32.320Z,86.30
2024-05-09T21:30:38.668Z,87.00
2024-05-09T21:40:34.532Z,87.30
2024-05-09T21:50:37.064Z,87.80
2024-05-09T22:00:36.353Z,88.30
2024-05-09T22:10:34.383Z,88.90
2024-05-09T22:20:36.828Z,89.60
2024-05-09T22:30:36.350Z,89.90
2024-05-09T22:40:39.137Z,90.20
2024-05-09T22:50:33.065Z,90.30
2024-05-09T23:00:32.556Z,90.60
2024-05-09T23:10:36.129Z,90.80
2024-05-09T23:20:37.037Z,91.10
2024-05-09T23:30:37.435Z,91.50
2024-05-09T23:40:38.173Z,92.00
2024-05-09T23:50:35.100Z,92.20
